Hauptseite
METAR-TAF:

METAR-TAF

Flughäfen :

Muskogee, Oklahoma, Vereinigte Staaten

Breite: 35-39-25N, Länge: 095-21-35W, Höhe: 185 m

Beobachtung

Neuester Wetterbericht von vor 53 Minuten, um 16:53 UTC
Wind 10 kt aus Süd/Südost
Temperatur 18°C
Luftfeuchtigkeit 42%
Luftdruck 1021 hPa
Sichtweite: 16.1 km
Durchbrochene Bewölkung in der Höhe von 11000 ft

METAR: KMKO 301653Z AUTO 15010KT 10SM BKN110 18/05 A3016 RMK AO2 SLP210 T01780050

Zeit: 12:46 (17:46 UTC)


TAF: fehlend

Wetterbeobachtungen und Prognosen von mehr als 4000 Flughäfen (METAR und TAF Bericht).

Die verfügbaren Stationen werden durch gelbe und rote Markierungen auf der Karte dargestellt.

Führen Sie die Maus auf sie, um den Namen der Station zu sehen.

Darauf klicken, um die Beobachtung von Wetterbeobachtungen und Prognosen zu sehen.

Um die Karte zu ändern : klicken Sie auf den grünen Tasten mit einem schwarzen Kreuz Zum Vergrößern, auf den grünen Button mit einem Gedankenstrich zu verkleinern, oder auf die grünen Pfeile für benachbarte Karten.


METAR-TAF: